Time;durP1;ratioP1;P1;durP2;ratioP2;P2;SDS_P1;SDS_P2;PMS_P1;PMS_P2;Temp;Humidity;BMP_temperature;BMP_pressure;BME280_temperature;BME280_humidity;BME280_pressure;Samples;Min_cycle;Max_cycle;Signal;HPM_P1;HPM_P2
2022/02/01 00:01:29;;;;;;;1.63;0.90;;;;;;;;;;5033347;28;20407;-74
2022/02/01 00:04:01;;;;;;;2.72;0.80;;;;;;;;;;5033475;28;20022;-73
2022/02/01 00:06:40;;;;;;;2.50;0.90;;;;;;;;;;5032099;28;20021;-73
2022/02/01 00:11:56;;;;;;;2.30;1.10;;;;;;;;;;5066031;28;20115;-73
2022/02/01 00:36:27;;;;;;;1.85;0.93;;;;;;;;;;5052539;28;20097;-73
2022/02/01 00:38:59;;;;;;;1.48;1.10;;;;;;;;;;5051199;28;20032;-73
2022/02/01 00:41:30;;;;;;;1.65;0.90;;;;;;;;;;5047566;28;20029;-73
2022/02/01 00:43:56;;;;;;;1.70;1.13;;;;;;;;;;5066679;28;20028;-73
2022/02/01 00:46:22;;;;;;;1.83;1.05;;;;;;;;;;5071388;28;20024;-73
2022/02/01 00:48:49;;;;;;;1.70;0.95;;;;;;;;;;5072657;28;20083;-73
2022/02/01 00:51:15;;;;;;;1.80;0.98;;;;;;;;;;5070857;28;20031;-73
2022/02/01 00:53:42;;;;;;;1.48;1.02;;;;;;;;;;5059364;28;20412;-73
2022/02/01 00:56:09;;;;;;;2.28;1.23;;;;;;;;;;5051114;28;20029;-73
2022/02/01 00:58:35;;;;;;;1.45;0.82;;;;;;;;;;5052308;28;20523;-73
2022/02/01 01:01:01;;;;;;;2.40;0.80;;;;;;;;;;5052071;28;20067;-73
2022/02/01 01:03:27;;;;;;;1.83;1.00;;;;;;;;;;5050646;28;20545;-73
2022/02/01 01:05:55;;;;;;;2.28;1.00;;;;;;;;;;5052337;28;20045;-73
2022/02/01 01:08:21;;;;;;;2.53;1.30;;;;;;;;;;5052044;28;20048;-73
2022/02/01 01:10:48;;;;;;;2.08;1.05;;;;;;;;;;5052400;28;20112;-73
2022/02/01 01:13:50;;;;;;;1.90;0.80;;;;;;;;;;5052385;28;20438;-73
2022/02/01 01:43:47;;;;;;;2.33;0.85;;;;;;;;;;5032161;28;20029;-73
2022/02/01 01:54:19;;;;;;;1.98;0.82;;;;;;;;;;5049925;28;20184;-73
2022/02/01 01:56:45;;;;;;;1.77;0.95;;;;;;;;;;5051941;28;20079;-73
2022/02/01 01:59:13;;;;;;;1.08;0.70;;;;;;;;;;5051544;28;20041;-73
2022/02/01 02:01:39;;;;;;;2.00;0.82;;;;;;;;;;5051088;28;20521;-73
2022/02/01 02:04:06;;;;;;;1.58;0.70;;;;;;;;;;5051666;28;20273;-73
2022/02/01 02:06:32;;;;;;;1.40;0.90;;;;;;;;;;5051724;28;20032;-73
2022/02/01 02:09:04;;;;;;;1.60;1.00;;;;;;;;;;5051747;28;20052;-73
2022/02/01 02:16:44;;;;;;;1.92;0.95;;;;;;;;;;5052122;28;20040;-73
2022/02/01 02:19:11;;;;;;;1.40;0.82;;;;;;;;;;5056952;28;20025;-73
2022/02/01 02:21:38;;;;;;;1.05;0.70;;;;;;;;;;5070941;28;20028;-73
2022/02/01 02:24:05;;;;;;;1.95;0.90;;;;;;;;;;5056767;28;20033;-73
2022/02/01 02:26:32;;;;;;;1.75;0.60;;;;;;;;;;5051746;28;20074;-73
2022/02/01 02:28:59;;;;;;;1.42;0.82;;;;;;;;;;5051265;28;20032;-73
2022/02/01 02:31:26;;;;;;;1.77;0.85;;;;;;;;;;5049407;28;20033;-73
2022/02/01 02:34:02;;;;;;;1.60;0.60;;;;;;;;;;5052313;28;20035;-73
2022/02/01 02:36:28;;;;;;;1.83;0.80;;;;;;;;;;5055054;28;20052;-73
2022/02/01 02:39:03;;;;;;;2.65;0.80;;;;;;;;;;5055201;28;20028;-73
2022/02/01 02:41:36;;;;;;;1.92;1.02;;;;;;;;;;5047832;28;20033;-73
2022/02/01 02:46:48;;;;;;;2.20;1.08;;;;;;;;;;5035512;28;20451;-73
2022/02/01 02:49:19;;;;;;;2.13;0.90;;;;;;;;;;5034747;28;20029;-73
2022/02/01 02:51:45;;;;;;;1.55;0.90;;;;;;;;;;5051230;28;20517;-73
2022/02/01 02:54:13;;;;;;;3.35;1.17;;;;;;;;;;5057621;28;20748;-73
2022/02/01 02:56:42;;;;;;;1.33;0.80;;;;;;;;;;5054624;28;20037;-73
2022/02/01 02:59:08;;;;;;;2.40;0.85;;;;;;;;;;5052977;28;20048;-73
2022/02/01 03:01:34;;;;;;;2.15;0.82;;;;;;;;;;5054070;28;20033;-73
2022/02/01 03:04:00;;;;;;;2.92;1.15;;;;;;;;;;5054163;28;20021;-73
2022/02/01 03:06:26;;;;;;;1.02;0.70;;;;;;;;;;5054060;28;20056;-74
2022/02/01 03:08:52;;;;;;;1.45;1.10;;;;;;;;;;5054359;28;20033;-74
2022/02/01 03:11:19;;;;;;;2.15;1.00;;;;;;;;;;5054110;28;20029;-74
2022/02/01 03:13:51;;;;;;;1.45;0.80;;;;;;;;;;5053991;28;20049;-73
2022/02/01 03:21:57;;;;;;;4.00;1.05;;;;;;;;;;5053910;28;20044;-73
2022/02/01 03:24:23;;;;;;;1.52;0.80;;;;;;;;;;5060559;28;20483;-73
2022/02/01 03:26:49;;;;;;;1.85;0.80;;;;;;;;;;5073048;28;20067;-73
2022/02/01 03:29:15;;;;;;;1.65;0.90;;;;;;;;;;5073887;28;20459;-73
2022/02/01 03:31:41;;;;;;;2.38;0.90;;;;;;;;;;5073683;28;20032;-73
2022/02/01 03:34:08;;;;;;;1.40;0.90;;;;;;;;;;5072085;28;20103;-73
2022/02/01 03:36:34;;;;;;;2.63;0.80;;;;;;;;;;5073847;28;20025;-73
2022/02/01 03:39:00;;;;;;;1.80;0.90;;;;;;;;;;5072517;28;20385;-73
2022/02/01 03:41:27;;;;;;;2.10;0.80;;;;;;;;;;5068680;28;20036;-73
2022/02/01 03:43:53;;;;;;;2.47;1.10;;;;;;;;;;5052040;28;20404;-73
2022/02/01 03:46:20;;;;;;;1.45;1.00;;;;;;;;;;5052017;28;20377;-74
2022/02/01 03:48:46;;;;;;;2.05;0.80;;;;;;;;;;5053908;28;20037;-74
2022/02/01 03:51:12;;;;;;;2.03;1.00;;;;;;;;;;5052503;28;20080;-74
2022/02/01 03:53:38;;;;;;;1.42;0.82;;;;;;;;;;5040577;28;20057;-74
2022/02/01 03:56:05;;;;;;;2.08;1.00;;;;;;;;;;5048575;28;20029;-74
2022/02/01 03:58:31;;;;;;;2.83;1.10;;;;;;;;;;5073185;28;20094;-74
2022/02/01 04:00:57;;;;;;;2.33;1.08;;;;;;;;;;5072106;28;20020;-74
2022/02/01 04:03:24;;;;;;;2.03;0.95;;;;;;;;;;5072700;28;20036;-74
2022/02/01 04:05:50;;;;;;;1.23;0.82;;;;;;;;;;5073308;28;20028;-73
2022/02/01 04:08:18;;;;;;;2.05;1.02;;;;;;;;;;5073405;28;20119;-73
2022/02/01 04:10:46;;;;;;;4.90;1.15;;;;;;;;;;5073118;28;20109;-73
2022/02/01 04:13:12;;;;;;;2.10;1.10;;;;;;;;;;5072951;28;20036;-74
2022/02/01 04:15:38;;;;;;;3.25;0.93;;;;;;;;;;5073123;28;20020;-74
2022/02/01 04:18:06;;;;;;;2.63;0.88;;;;;;;;;;5073336;28;20017;-74
2022/02/01 04:20:32;;;;;;;2.53;1.00;;;;;;;;;;5073019;28;20017;-73
2022/02/01 04:22:58;;;;;;;2.08;0.93;;;;;;;;;;5067557;28;20044;-73
2022/02/01 04:25:25;;;;;;;1.92;0.80;;;;;;;;;;5052491;28;20021;-74
2022/02/01 04:27:52;;;;;;;2.15;1.10;;;;;;;;;;5056102;28;20070;-74
2022/02/01 04:30:18;;;;;;;3.17;1.10;;;;;;;;;;5072858;28;20376;-73
2022/02/01 04:32:52;;;;;;;1.25;0.70;;;;;;;;;;5073070;28;20032;-73
2022/02/01 04:35:18;;;;;;;;;;;;;;;;;;5072674;28;20028;-73
2022/02/01 04:37:44;;;;;;;2.33;1.00;;;;;;;;;;5071689;28;20441;-73
2022/02/01 04:40:11;;;;;;;2.63;1.05;;;;;;;;;;5072843;28;20032;-73
2022/02/01 04:42:38;;;;;;;2.10;1.00;;;;;;;;;;5058380;28;20021;-73
2022/02/01 04:45:05;;;;;;;2.38;0.90;;;;;;;;;;5052015;28;20037;-73
2022/02/01 04:47:34;;;;;;;2.33;0.93;;;;;;;;;;5052805;28;20021;-73
2022/02/01 04:50:01;;;;;;;2.05;1.02;;;;;;;;;;5052332;28;20028;-73
2022/02/01 04:52:28;;;;;;;3.45;1.50;;;;;;;;;;5049761;28;20033;-74
2022/02/01 04:54:54;;;;;;;3.55;1.40;;;;;;;;;;5031945;28;20033;-74
2022/02/01 04:57:20;;;;;;;1.75;1.00;;;;;;;;;;5032808;28;20565;-74
2022/02/01 04:59:46;;;;;;;1.92;0.80;;;;;;;;;;5034114;28;20053;-74
2022/02/01 05:02:12;;;;;;;2.22;1.00;;;;;;;;;;5071876;28;20028;-74
2022/02/01 05:04:38;;;;;;;3.17;0.70;;;;;;;;;;5071831;28;20051;-74
2022/02/01 05:07:04;;;;;;;1.42;0.77;;;;;;;;;;5072257;28;20395;-74
2022/02/01 05:09:32;;;;;;;2.10;0.90;;;;;;;;;;5061364;28;20530;-74
2022/02/01 05:12:01;;;;;;;2.42;1.10;;;;;;;;;;5041314;28;20031;-74
2022/02/01 05:14:29;;;;;;;1.90;1.00;;;;;;;;;;5042314;28;20033;-74
2022/02/01 05:16:58;;;;;;;1.60;0.70;;;;;;;;;;5032326;28;20021;-74
2022/02/01 05:21:56;;;;;;;2.38;0.98;;;;;;;;;;5051845;28;20087;-74
2022/02/01 05:24:24;;;;;;;1.67;1.00;;;;;;;;;;5051567;28;20029;-74
2022/02/01 05:26:51;;;;;;;3.45;1.02;;;;;;;;;;5046115;28;20488;-74
2022/02/01 05:29:20;;;;;;;2.13;0.85;;;;;;;;;;5030858;28;20033;-74
2022/02/01 05:31:51;;;;;;;3.35;1.10;;;;;;;;;;5031580;28;20029;-74
2022/02/01 05:34:18;;;;;;;2.25;0.98;;;;;;;;;;5068943;28;20040;-74
2022/02/01 05:36:44;;;;;;;2.33;1.17;;;;;;;;;;5071816;28;20385;-74
2022/02/01 05:39:15;;;;;;;2.55;1.10;;;;;;;;;;5072002;28;20078;-75
2022/02/01 05:41:41;;;;;;;1.30;0.85;;;;;;;;;;5065140;28;20029;-75
2022/02/01 05:44:07;;;;;;;1.95;0.93;;;;;;;;;;5043929;28;20097;-73
2022/02/01 05:46:35;;;;;;;3.33;1.35;;;;;;;;;;5031687;28;20030;-73
2022/02/01 05:49:01;;;;;;;2.83;0.98;;;;;;;;;;5030673;28;20025;-73
2022/02/01 05:51:27;;;;;;;2.40;1.05;;;;;;;;;;5031172;28;20485;-73
2022/02/01 05:53:53;;;;;;;2.88;1.17;;;;;;;;;;5045715;28;20427;-73
2022/02/01 05:56:19;;;;;;;3.88;1.00;;;;;;;;;;5050271;28;20032;-73
2022/02/01 05:58:45;;;;;;;1.35;0.82;;;;;;;;;;5050252;28;20045;-73
2022/02/01 06:01:12;;;;;;;3.45;0.90;;;;;;;;;;5051721;28;20557;-73
2022/02/01 06:03:39;;;;;;;2.25;1.15;;;;;;;;;;5051198;28;20531;-73
2022/02/01 06:06:05;;;;;;;3.47;1.00;;;;;;;;;;5051960;28;20496;-73
2022/02/01 06:08:31;;;;;;;1.45;1.00;;;;;;;;;;5052436;28;20029;-73
2022/02/01 06:10:57;;;;;;;1.67;0.70;;;;;;;;;;5055729;28;20049;-73
2022/02/01 06:13:23;;;;;;;1.83;0.90;;;;;;;;;;5055427;28;20057;-73
2022/02/01 06:15:49;;;;;;;1.38;0.80;;;;;;;;;;5055085;28;20492;-73
2022/02/01 06:18:15;;;;;;;1.52;0.80;;;;;;;;;;5047584;28;20030;-73
2022/02/01 06:20:42;;;;;;;2.90;0.80;;;;;;;;;;5035339;28;20100;-73
2022/02/01 06:23:15;;;;;;;3.40;1.00;;;;;;;;;;5035446;28;20025;-73
2022/02/01 06:28:07;;;;;;;2.65;1.10;;;;;;;;;;5035474;28;20393;-73
2022/02/01 06:30:33;;;;;;;2.25;0.90;;;;;;;;;;5035184;28;20107;-73
2022/02/01 06:32:59;;;;;;;2.95;1.02;;;;;;;;;;5035576;28;20029;-73
2022/02/01 06:35:26;;;;;;;1.65;0.90;;;;;;;;;;5034585;28;20021;-73
2022/02/01 06:37:52;;;;;;;1.77;0.80;;;;;;;;;;5059984;28;20034;-73
2022/02/01 06:40:21;;;;;;;2.75;0.95;;;;;;;;;;5059514;28;20542;-73
2022/02/01 06:42:47;;;;;;;3.53;1.20;;;;;;;;;;5039336;28;20033;-73
2022/02/01 06:45:13;;;;;;;1.95;0.77;;;;;;;;;;5034800;28;20449;-73
2022/02/01 06:47:40;;;;;;;1.75;0.80;;;;;;;;;;5035221;28;20022;-73
2022/02/01 06:50:06;;;;;;;1.45;0.80;;;;;;;;;;5034932;28;20447;-73
2022/02/01 06:52:33;;;;;;;1.55;0.90;;;;;;;;;;5037623;28;20032;-73
2022/02/01 06:55:02;;;;;;;1.70;1.10;;;;;;;;;;5054676;28;20053;-73
2022/02/01 06:57:28;;;;;;;2.90;0.98;;;;;;;;;;5054465;28;20032;-73
2022/02/01 06:59:54;;;;;;;3.42;0.90;;;;;;;;;;5054303;28;20412;-72
2022/02/01 07:02:20;;;;;;;1.55;0.98;;;;;;;;;;5053840;28;20431;-72
2022/02/01 07:04:47;;;;;;;1.17;0.70;;;;;;;;;;5054380;28;20025;-72
2022/02/01 07:07:14;;;;;;;2.67;1.00;;;;;;;;;;5053956;28;20036;-72
2022/02/01 07:09:40;;;;;;;2.00;0.75;;;;;;;;;;5063610;28;20025;-72
2022/02/01 07:12:06;;;;;;;2.13;0.70;;;;;;;;;;5073973;28;20254;-72
2022/02/01 07:14:32;;;;;;;2.15;0.88;;;;;;;;;;5073938;28;20028;-72
2022/02/01 07:16:58;;;;;;;2.28;1.20;;;;;;;;;;5074035;28;20032;-72
2022/02/01 07:19:25;;;;;;;2.15;0.80;;;;;;;;;;5056519;28;20107;-72
2022/02/01 07:21:51;;;;;;;2.17;0.52;;;;;;;;;;5052629;28;20585;-72
2022/02/01 07:24:26;;;;;;;1.77;0.73;;;;;;;;;;5054002;28;20094;-72
2022/02/01 07:26:58;;;;;;;2.25;0.80;;;;;;;;;;5052614;28;20131;-72
2022/02/01 07:29:25;;;;;;;2.15;1.00;;;;;;;;;;5054076;28;20032;-72
2022/02/01 07:31:51;;;;;;;1.60;0.70;;;;;;;;;;5053520;28;20029;-72
2022/02/01 07:34:17;;;;;;;1.42;0.80;;;;;;;;;;5053801;28;20104;-72
2022/02/01 07:36:43;;;;;;;2.15;0.98;;;;;;;;;;5053915;28;20044;-72
2022/02/01 07:39:10;;;;;;;1.67;0.80;;;;;;;;;;5054031;28;20056;-72
2022/02/01 07:41:36;;;;;;;2.15;0.80;;;;;;;;;;5054540;28;20443;-72
2022/02/01 07:44:03;;;;;;;2.35;0.70;;;;;;;;;;5053787;28;20384;-72
2022/02/01 07:46:30;;;;;;;2.20;0.90;;;;;;;;;;5053348;28;20025;-72
2022/02/01 07:48:56;;;;;;;2.53;0.80;;;;;;;;;;5053840;28;20039;-73
2022/02/01 07:51:22;;;;;;;1.90;0.85;;;;;;;;;;5053087;28;20105;-73
2022/02/01 07:53:48;;;;;;;2.05;0.75;;;;;;;;;;5038839;28;20480;-73
2022/02/01 07:56:14;;;;;;;2.42;1.08;;;;;;;;;;5033655;28;20112;-73
2022/02/01 07:58:41;;;;;;;2.65;0.80;;;;;;;;;;5032871;28;20045;-73
2022/02/01 08:01:07;;;;;;;2.42;0.80;;;;;;;;;;5031395;28;20025;-73
2022/02/01 08:03:33;;;;;;;2.08;0.93;;;;;;;;;;5034161;28;20029;-73
2022/02/01 08:05:59;;;;;;;1.75;1.05;;;;;;;;;;5033180;28;20017;-73
2022/02/01 08:08:25;;;;;;;2.00;0.93;;;;;;;;;;5036016;28;20472;-74
2022/02/01 08:10:54;;;;;;;1.88;0.80;;;;;;;;;;5038919;28;20382;-73
2022/02/01 08:18:50;;;;;;;3.38;0.88;;;;;;;;;;5052601;28;20052;-73
2022/02/01 08:21:24;;;;;;;2.05;0.90;;;;;;;;;;5052172;28;20476;-73
2022/02/01 08:23:50;;;;;;;2.90;0.80;;;;;;;;;;5052322;28;20033;-73
2022/02/01 08:26:17;;;;;;;3.20;1.10;;;;;;;;;;5037465;28;20036;-73
2022/02/01 08:28:43;;;;;;;3.63;1.17;;;;;;;;;;5042365;28;20099;-72
2022/02/01 08:31:09;;;;;;;2.25;0.80;;;;;;;;;;5042601;28;20509;-73
2022/02/01 08:33:37;;;;;;;2.95;1.08;;;;;;;;;;5051118;28;20029;-74
2022/02/01 08:36:03;;;;;;;3.00;1.00;;;;;;;;;;5052300;28;20484;-73
2022/02/01 08:38:30;;;;;;;1.88;0.88;;;;;;;;;;5049846;28;20032;-75
2022/02/01 08:40:58;;;;;;;3.88;0.93;;;;;;;;;;5032903;28;20116;-75
2022/02/01 08:43:24;;;;;;;6.80;1.02;;;;;;;;;;5045647;28;20016;-74
2022/02/01 08:45:50;;;;;;;3.72;0.90;;;;;;;;;;5051663;28;20102;-73
2022/02/01 08:48:16;;;;;;;1.77;0.60;;;;;;;;;;5052396;28;20029;-74
2022/02/01 08:50:42;;;;;;;3.78;1.08;;;;;;;;;;5031362;28;20036;-73
2022/02/01 08:53:16;;;;;;;4.07;1.35;;;;;;;;;;5038051;28;20504;-73
2022/02/01 08:58:18;;;;;;;4.47;0.90;;;;;;;;;;5043322;28;20054;-74
2022/02/01 09:00:44;;;;;;;2.00;0.82;;;;;;;;;;5037645;28;20061;-75
2022/02/01 09:03:11;;;;;;;2.67;1.10;;;;;;;;;;5051632;28;20454;-73
2022/02/01 09:05:40;;;;;;;2.22;0.93;;;;;;;;;;5049003;28;20411;-74
2022/02/01 09:08:06;;;;;;;2.88;0.90;;;;;;;;;;5036247;28;20071;-75
2022/02/01 09:10:32;;;;;;;1.73;0.80;;;;;;;;;;5051021;28;20040;-75
2022/02/01 09:13:02;;;;;;;5.63;0.95;;;;;;;;;;5050732;28;20051;-74
2022/02/01 09:15:29;;;;;;;4.88;1.10;;;;;;;;;;5049149;28;20025;-75
2022/02/01 09:17:56;;;;;;;2.65;0.80;;;;;;;;;;5050427;28;20112;-74
2022/02/01 09:20:22;;;;;;;2.60;0.90;;;;;;;;;;5035647;28;20029;-74
2022/02/01 09:22:48;;;;;;;2.55;0.90;;;;;;;;;;5035476;28;20026;-74
2022/02/01 09:25:17;;;;;;;1.90;0.93;;;;;;;;;;5031026;28;20507;-74
2022/02/01 09:27:48;;;;;;;2.17;0.77;;;;;;;;;;5031223;28;20018;-75
2022/02/01 09:30:16;;;;;;;3.55;1.05;;;;;;;;;;5031002;28;20480;-75
2022/02/01 09:32:43;;;;;;;0.93;0.70;;;;;;;;;;5031302;28;20436;-75
2022/02/01 09:35:09;;;;;;;2.25;0.90;;;;;;;;;;5043199;28;20082;-76
2022/02/01 09:37:35;;;;;;;1.30;0.50;;;;;;;;;;5049176;28;20121;-75
2022/02/01 09:40:02;;;;;;;4.45;0.73;;;;;;;;;;5049683;28;20116;-76
2022/02/01 09:42:28;;;;;;;2.38;0.70;;;;;;;;;;5049350;28;20102;-76
2022/02/01 09:44:58;;;;;;;1.30;0.77;;;;;;;;;;5053741;28;20025;-76
2022/02/01 09:47:34;;;;;;;4.55;1.38;;;;;;;;;;5048909;28;20065;-75
2022/02/01 09:50:00;;;;;;;3.30;1.30;;;;;;;;;;5040022;28;20037;-75
2022/02/01 09:52:27;;;;;;;4.13;1.05;;;;;;;;;;5065779;28;20162;-73
2022/02/01 09:54:54;;;;;;;2.42;0.90;;;;;;;;;;5035172;28;20515;-74
2022/02/01 09:57:21;;;;;;;2.17;0.70;;;;;;;;;;5037385;28;20504;-73
2022/02/01 09:59:55;;;;;;;3.55;0.70;;;;;;;;;;5048256;28;20397;-73
2022/02/01 10:02:22;;;;;;;2.28;1.05;;;;;;;;;;5052151;28;20025;-72
2022/02/01 10:04:49;;;;;;;1.42;0.70;;;;;;;;;;5054726;28;20409;-72
2022/02/01 10:07:16;;;;;;;3.95;0.85;;;;;;;;;;5049808;28;20809;-72
2022/02/01 10:09:50;;;;;;;2.05;1.00;;;;;;;;;;5049821;28;20033;-72
2022/02/01 10:12:17;;;;;;;2.92;0.93;;;;;;;;;;5051964;28;20170;-72
2022/02/01 10:14:52;;;;;;;1.40;0.80;;;;;;;;;;5053099;28;20480;-73
2022/02/01 10:17:29;;;;;;;1.50;0.90;;;;;;;;;;5048671;28;20086;-73
2022/02/01 10:19:55;;;;;;;1.08;0.60;;;;;;;;;;5047627;28;20507;-73
2022/02/01 10:22:32;;;;;;;3.88;1.10;;;;;;;;;;5051148;28;20033;-74
2022/02/01 10:24:58;;;;;;;3.92;1.13;;;;;;;;;;5051747;28;20548;-73
2022/02/01 10:27:27;;;;;;;3.20;0.73;;;;;;;;;;5050280;28;20029;-73
2022/02/01 10:30:10;;;;;;;3.90;1.10;;;;;;;;;;5046733;28;20152;-74
2022/02/01 10:35:23;;;;;;;2.85;0.70;;;;;;;;;;5051500;28;20041;-74
2022/02/01 10:37:59;;;;;;;2.88;0.90;;;;;;;;;;5047345;28;20078;-74
2022/02/01 10:40:36;;;;;;;4.15;1.70;;;;;;;;;;5043753;28;20029;-74
2022/02/01 10:43:04;;;;;;;4.18;1.20;;;;;;;;;;5049843;28;20167;-75
2022/02/01 10:45:33;;;;;;;4.80;1.00;;;;;;;;;;5045955;28;20040;-75
2022/02/01 10:47:59;;;;;;;2.20;0.90;;;;;;;;;;5051272;28;20025;-75
2022/02/01 10:50:28;;;;;;;4.13;0.80;;;;;;;;;;5049600;28;20388;-75
2022/02/01 10:52:55;;;;;;;1.73;0.90;;;;;;;;;;5044327;28;20064;-74
2022/02/01 10:55:21;;;;;;;2.70;0.88;;;;;;;;;;5053146;28;20033;-74
2022/02/01 10:57:48;;;;;;;3.97;1.00;;;;;;;;;;5052377;28;20032;-75
2022/02/01 11:00:16;;;;;;;1.70;0.88;;;;;;;;;;5050783;28;20107;-76
2022/02/01 11:02:43;;;;;;;4.60;1.17;;;;;;;;;;5051859;28;20021;-77
2022/02/01 11:05:14;;;;;;;3.25;0.95;;;;;;;;;;5050729;28;20028;-75
2022/02/01 11:07:40;;;;;;;2.55;0.70;;;;;;;;;;5052320;28;20029;-74
2022/02/01 11:10:07;;;;;;;2.15;0.80;;;;;;;;;;5043225;28;20501;-74
2022/02/01 11:12:33;;;;;;;4.13;0.70;;;;;;;;;;5036728;28;20040;-76
2022/02/01 11:14:59;;;;;;;3.50;1.05;;;;;;;;;;5048308;28;20049;-75
2022/02/01 11:17:26;;;;;;;2.13;0.82;;;;;;;;;;5046261;28;20100;-75
2022/02/01 11:19:56;;;;;;;3.08;1.13;;;;;;;;;;5041690;28;20294;-75
2022/02/01 11:22:33;;;;;;;2.42;1.00;;;;;;;;;;5039156;28;20033;-75
2022/02/01 11:25:01;;;;;;;1.90;0.80;;;;;;;;;;5045608;28;20059;-75
2022/02/01 11:27:38;;;;;;;2.28;0.90;;;;;;;;;;5046761;28;20111;-76
2022/02/01 11:30:11;;;;;;;4.72;0.77;;;;;;;;;;5045230;28;20033;-75
2022/02/01 11:32:37;;;;;;;;;;;;;;;;;;5036526;28;20041;-75
2022/02/01 11:35:06;;;;;;;2.15;1.02;;;;;;;;;;5052292;28;19905;-75
2022/02/01 11:37:32;;;;;;;3.55;0.90;;;;;;;;;;5048015;28;20025;-73
2022/02/01 11:39:58;;;;;;;3.15;1.10;;;;;;;;;;5044546;28;20498;-74
2022/02/01 11:42:32;;;;;;;2.50;1.08;;;;;;;;;;5047776;28;20028;-77
2022/02/01 11:45:03;;;;;;;4.25;1.30;;;;;;;;;;5045844;28;20020;-76
2022/02/01 11:47:37;;;;;;;4.57;1.33;;;;;;;;;;5039215;28;20163;-75
2022/02/01 11:50:03;;;;;;;;;;;;;;;;;;5033624;28;20514;-75
2022/02/01 11:52:29;;;;;;;4.75;1.48;;;;;;;;;;5048776;28;19904;-74
2022/02/01 11:55:03;;;;;;;4.35;1.35;;;;;;;;;;5047220;28;20120;-75
2022/02/01 11:57:30;;;;;;;3.22;1.00;;;;;;;;;;5046377;28;20028;-75
2022/02/01 12:00:02;;;;;;;2.95;1.20;;;;;;;;;;5056571;28;20048;-74
2022/02/01 12:02:36;;;;;;;11.13;1.75;;;;;;;;;;5066961;28;20462;-75
2022/02/01 12:05:09;;;;;;;12.52;2.10;;;;;;;;;;5052646;28;20029;-75
2022/02/01 12:08:00;;;;;;;10.38;2.03;;;;;;;;;;5047124;28;20678;-75
2022/02/01 12:10:26;;;;;;;14.20;1.88;;;;;;;;;;5046359;28;20090;-75
2022/02/01 12:12:55;;;;;;;13.00;1.70;;;;;;;;;;5048507;28;20668;-75
2022/02/01 12:15:25;;;;;;;45.85;4.30;;;;;;;;;;5047180;28;20024;-76
2022/02/01 12:17:56;;;;;;;12.95;2.20;;;;;;;;;;5048896;28;20040;-75
2022/02/01 12:20:24;;;;;;;21.30;2.58;;;;;;;;;;5040222;28;20051;-75
2022/02/01 12:23:03;;;;;;;18.70;2.28;;;;;;;;;;5043810;28;20649;-77
2022/02/01 12:25:29;;;;;;;13.00;2.40;;;;;;;;;;5043083;28;20480;-77
2022/02/01 12:27:55;;;;;;;15.43;2.60;;;;;;;;;;5029249;28;20260;-77
2022/02/01 12:30:21;;;;;;;19.17;2.72;;;;;;;;;;5037236;28;20108;-77
2022/02/01 12:32:52;;;;;;;17.80;2.40;;;;;;;;;;5061515;28;20445;-77
2022/02/01 12:35:29;;;;;;;19.33;2.20;;;;;;;;;;5057440;28;20025;-78
2022/02/01 12:38:05;;;;;;;18.52;2.88;;;;;;;;;;5032137;28;20084;-79
2022/02/01 12:40:34;;;;;;;11.63;2.38;;;;;;;;;;5031502;28;20082;-76
2022/02/01 12:43:08;;;;;;;14.38;2.30;;;;;;;;;;5027839;28;20025;-77
2022/02/01 12:48:20;;;;;;;16.10;2.13;;;;;;;;;;5033938;28;20523;-78
2022/02/01 12:51:12;;;;;;;8.80;2.10;;;;;;;;;;5027436;28;20029;-78
2022/02/01 12:53:43;;;;;;;7.22;1.70;;;;;;;;;;5033787;28;20090;-78
2022/02/01 12:56:13;;;;;;;8.90;1.98;;;;;;;;;;5038281;28;20025;-78
2022/02/01 12:58:39;;;;;;;4.57;1.48;;;;;;;;;;5042942;28;20048;-77
2022/02/01 13:01:06;;;;;;;7.90;2.00;;;;;;;;;;5044254;28;20550;-78
2022/02/01 13:03:44;;;;;;;8.25;1.90;;;;;;;;;;5047859;28;20625;-77
2022/02/01 13:06:12;;;;;;;5.90;1.73;;;;;;;;;;5064361;28;20042;-77
2022/02/01 13:12:56;;;;;;;9.00;1.98;;;;;;;;;;5067767;28;20047;-76
2022/02/01 13:14:31;;;;;;;7.78;1.73;;;;;;;;;;5051048;28;20553;-77
2022/02/01 13:17:14;;;;;;;7.80;1.50;;;;;;;;;;5035307;28;20087;-78
2022/02/01 13:22:30;;;;;;;4.60;1.60;;;;;;;;;;5037790;28;20094;-76
2022/02/01 13:25:07;;;;;;;8.48;1.77;;;;;;;;;;5031568;28;20089;-77
2022/02/01 13:27:35;;;;;;;6.57;1.55;;;;;;;;;;5032314;28;20036;-76
2022/02/01 13:30:01;;;;;;;4.38;1.40;;;;;;;;;;5043418;28;20017;-76
2022/02/01 13:32:31;;;;;;;6.15;1.35;;;;;;;;;;5031781;28;20087;-77
2022/02/01 13:35:01;;;;;;;8.25;2.55;;;;;;;;;;5043202;28;20480;-76
2022/02/01 13:37:27;;;;;;;3.13;1.35;;;;;;;;;;5064133;28;20036;-76
2022/02/01 13:39:53;;;;;;;4.30;1.50;;;;;;;;;;5035955;28;20017;-77
2022/02/01 13:42:27;;;;;;;5.05;1.50;;;;;;;;;;5039313;28;20097;-78
2022/02/01 13:44:58;;;;;;;3.95;1.60;;;;;;;;;;5032166;28;20064;-77
2022/02/01 13:47:32;;;;;;;2.53;1.10;;;;;;;;;;5032752;28;20172;-78
2022/02/01 13:49:59;;;;;;;3.22;1.27;;;;;;;;;;5033484;28;20022;-77
2022/02/01 13:52:25;;;;;;;3.92;1.52;;;;;;;;;;5043820;28;20063;-78
2022/02/01 13:54:51;;;;;;;5.40;1.88;;;;;;;;;;5032183;28;20031;-77
2022/02/01 13:57:22;;;;;;;6.63;1.55;;;;;;;;;;5047376;28;20037;-80
2022/02/01 13:59:49;;;;;;;6.75;1.35;;;;;;;;;;5033356;28;20068;-79
2022/02/01 14:02:22;;;;;;;4.97;1.45;;;;;;;;;;5036353;28;20447;-78
2022/02/01 14:05:03;;;;;;;3.80;1.48;;;;;;;;;;5047685;28;20021;-78
2022/02/01 14:07:57;;;;;;;3.63;1.38;;;;;;;;;;5037540;28;20179;-78
2022/02/01 14:10:35;;;;;;;;;;;;;;;;;;5045861;28;20021;-77
2022/02/01 14:29:08;;;;;;;5.93;1.98;;;;;;;;;;5039017;28;20068;-77
2022/02/01 14:34:21;;;;;;;7.28;1.40;;;;;;;;;;5036793;28;20265;-78
2022/02/01 14:36:50;;;;;;;5.53;1.45;;;;;;;;;;5034040;28;20459;-78
2022/02/01 14:44:47;;;;;;;4.18;1.17;;;;;;;;;;5037517;28;20025;-76
2022/02/01 14:47:14;;;;;;;5.07;1.37;;;;;;;;;;5033477;28;20403;-76
2022/02/01 14:49:41;;;;;;;3.33;1.42;;;;;;;;;;5044241;28;20108;-77
2022/02/01 14:52:07;;;;;;;4.20;1.10;;;;;;;;;;5039715;28;20487;-76
2022/02/01 14:54:49;;;;;;;2.88;1.30;;;;;;;;;;5051730;28;20112;-77
2022/02/01 15:13:17;;;;;;;3.38;1.40;;;;;;;;;;5040676;28;20138;-77
2022/02/01 15:15:43;;;;;;;4.88;0.90;;;;;;;;;;5027875;28;20373;-77
2022/02/01 15:18:09;;;;;;;2.75;0.88;;;;;;;;;;5043508;28;20029;-75
2022/02/01 15:20:35;;;;;;;7.95;1.20;;;;;;;;;;5036734;28;20033;-74
2022/02/01 15:23:02;;;;;;;6.40;1.23;;;;;;;;;;5028885;28;20025;-74
2022/02/01 15:25:28;;;;;;;2.15;1.02;;;;;;;;;;5027920;28;20477;-74
2022/02/01 15:27:55;;;;;;;3.53;0.93;;;;;;;;;;5023417;28;20508;-74
2022/02/01 15:30:21;;;;;;;4.95;1.08;;;;;;;;;;5040281;28;20417;-74
2022/02/01 15:32:50;;;;;;;2.38;1.15;;;;;;;;;;5031914;28;20123;-74
2022/02/01 15:35:18;;;;;;;6.32;1.02;;;;;;;;;;5045871;28;20029;-74
2022/02/01 15:37:46;;;;;;;2.50;0.90;;;;;;;;;;5028820;28;20029;-75
2022/02/01 15:59:06;;;;;;;4.78;1.08;;;;;;;;;;5045642;28;20060;-76
2022/02/01 16:01:44;;;;;;;2.53;1.10;;;;;;;;;;5040667;28;20587;-74
2022/02/01 16:04:12;;;;;;;4.70;1.20;;;;;;;;;;5042261;28;20056;-75
2022/02/01 16:06:41;;;;;;;2.20;0.70;;;;;;;;;;5044788;28;20081;-75
2022/02/01 16:09:23;;;;;;;2.97;0.90;;;;;;;;;;5067992;28;20036;-75
2022/02/01 16:11:49;;;;;;;1.80;0.77;;;;;;;;;;5067841;28;20025;-74
2022/02/01 16:14:15;;;;;;;3.67;1.33;;;;;;;;;;5066244;28;20033;-75
2022/02/01 16:16:42;;;;;;;3.60;1.08;;;;;;;;;;5067558;28;20029;-75
2022/02/01 16:19:09;;;;;;;4.72;1.20;;;;;;;;;;5064867;28;20198;-75
2022/02/01 16:21:37;;;;;;;3.78;1.08;;;;;;;;;;5049295;28;20107;-75
2022/02/01 16:24:03;;;;;;;1.63;1.00;;;;;;;;;;5045527;28;20487;-76
2022/02/01 16:26:29;;;;;;;7.60;1.05;;;;;;;;;;5044566;28;20028;-75
2022/02/01 16:28:56;;;;;;;6.10;1.13;;;;;;;;;;5043433;28;20104;-75
2022/02/01 16:31:22;;;;;;;3.72;1.00;;;;;;;;;;5042956;28;20037;-76
2022/02/01 16:33:48;;;;;;;3.58;0.70;;;;;;;;;;5043893;28;20532;-76
2022/02/01 16:36:21;;;;;;;3.28;0.80;;;;;;;;;;5043874;28;20105;-76
2022/02/01 16:38:47;;;;;;;7.25;0.98;;;;;;;;;;5051220;28;20391;-75
2022/02/01 16:41:13;;;;;;;1.60;0.70;;;;;;;;;;5061915;28;20055;-75
2022/02/01 16:43:39;;;;;;;3.00;1.13;;;;;;;;;;5046563;28;20484;-76
2022/02/01 16:46:06;;;;;;;2.72;0.88;;;;;;;;;;5048293;28;20017;-75
2022/02/01 16:48:33;;;;;;;3.75;0.98;;;;;;;;;;5046561;28;20052;-75
2022/02/01 16:50:59;;;;;;;4.95;0.82;;;;;;;;;;5045875;28;20533;-76
2022/02/01 16:53:36;;;;;;;3.20;0.93;;;;;;;;;;5033261;28;20126;-76
2022/02/01 16:56:20;;;;;;;3.08;0.98;;;;;;;;;;5023000;28;20461;-75
2022/02/01 16:58:53;;;;;;;3.53;1.10;;;;;;;;;;5023063;28;20065;-75
2022/02/01 17:01:20;;;;;;;4.10;0.95;;;;;;;;;;5024788;28;20496;-75
2022/02/01 17:03:46;;;;;;;1.95;0.95;;;;;;;;;;5024681;28;20495;-75
2022/02/01 17:06:12;;;;;;;2.72;0.90;;;;;;;;;;5024946;28;20029;-76
2022/02/01 17:08:40;;;;;;;1.15;0.60;;;;;;;;;;5024330;28;20068;-76
2022/02/01 17:11:22;;;;;;;5.35;1.00;;;;;;;;;;5041561;28;20020;-76
2022/02/01 17:23:53;;;;;;;3.08;0.80;;;;;;;;;;5045755;28;20025;-75
2022/02/01 17:26:19;;;;;;;1.67;0.68;;;;;;;;;;5043839;28;20737;-75
2022/02/01 17:28:45;;;;;;;2.42;0.65;;;;;;;;;;5040312;28;20396;-76
2022/02/01 17:31:11;;;;;;;2.03;0.60;;;;;;;;;;5024202;28;20428;-75
2022/02/01 17:33:38;;;;;;;1.70;0.60;;;;;;;;;;5024049;28;20100;-76
2022/02/01 17:36:05;;;;;;;1.48;0.90;;;;;;;;;;5024521;28;20014;-76
2022/02/01 17:38:31;;;;;;;1.33;0.80;;;;;;;;;;5024763;28;20030;-75